Weather at Enontekio Airport

Public forecast

Using degrees Celsius for public forecast. Weather courtesy of forecast.io.

Current aviation weather report (METAR) for Enontekio Airport

Report is more than 6 hours old.

2022/11/14 15:20 (retrieved 2 years ago)

EFET 141520Z AUTO 09004KT 060V140 9999 FEW047 M12/M14 Q1019

Closest aviation forecast (TAF) to Enontekio Airport

Forecast is more than 12 hours old.

Closest forecast is Lakselv Airport, Banak, 107.6 nm (199.3 km) NNE.

2023/02/22 18:36 (retrieved 1 year ago)

TAF ENNA 221700Z 2218/2318 18020KT CAVOK TEMPO 2218/2306 18030G45KT BLSN TEMPO 2302/2309 2500 -SN VV010 TEMPO 2306/2318 18020G35KT BLSN